createdAt,value
2018-02-15T00:01:45.516Z,138.77
2018-02-15T00:04:13.867Z,133.77
2018-02-15T00:06:42.878Z,128.43
2018-02-15T00:09:11.180Z,140.60
2018-02-15T00:11:39.427Z,101.50
2018-02-15T00:14:07.664Z,111.10
2018-02-15T00:16:35.945Z,157.20
2018-02-15T00:19:04.202Z,122.37
2018-02-15T00:21:32.443Z,134.80
2018-02-15T00:24:00.887Z,142.20
2018-02-15T00:26:29.162Z,127.57
2018-02-15T00:28:58.224Z,116.90
2018-02-15T00:31:26.566Z,131.60
2018-02-15T00:33:54.835Z,120.30
2018-02-15T00:36:23.100Z,123.60
2018-02-15T00:38:52.155Z,117.40
2018-02-15T00:41:20.485Z,125.83
2018-02-15T00:43:48.771Z,93.63
2018-02-15T00:46:17.082Z,113.97
2018-02-15T00:48:45.353Z,120.10
2018-02-15T00:51:13.632Z,131.87
2018-02-15T00:53:41.933Z,116.80
2018-02-15T00:56:10.213Z,116.50
2018-02-15T00:58:39.254Z,128.97
2018-02-15T01:01:07.568Z,121.17
2018-02-15T01:03:35.819Z,123.80
2018-02-15T01:06:04.062Z,115.57
2018-02-15T01:08:32.404Z,143.37
2018-02-15T01:11:00.678Z,122.93
2018-02-15T01:13:29.717Z,103.30
2018-02-15T01:15:58.017Z,110.23
2018-02-15T01:18:26.259Z,100.67
2018-02-15T01:20:54.505Z,108.53
2018-02-15T01:23:22.772Z,134.77
2018-02-15T01:25:51.047Z,118.87
2018-02-15T01:28:19.313Z,125.43
2018-02-15T01:30:47.619Z,131.27
2018-02-15T01:33:16.650Z,120.00
2018-02-15T01:35:44.891Z,107.63
2018-02-15T01:38:13.955Z,128.53
2018-02-15T01:40:42.245Z,112.00
2018-02-15T01:43:10.500Z,99.73
2018-02-15T01:45:38.818Z,90.67
2018-02-15T01:48:07.060Z,97.07
2018-02-15T01:50:35.366Z,112.97
2018-02-15T01:53:03.670Z,116.97
2018-02-15T01:55:31.927Z,118.93
2018-02-15T01:58:00.178Z,114.60
2018-02-15T02:00:28.474Z,85.97
2018-02-15T02:02:56.737Z,97.43
2018-02-15T02:05:24.997Z,113.60
2018-02-15T02:07:53.362Z,118.10
2018-02-15T02:10:21.649Z,88.20
2018-02-15T02:12:49.993Z,100.07
2018-02-15T02:15:18.300Z,107.80
2018-02-15T02:17:46.598Z,99.13
2018-02-15T02:20:15.588Z,119.43
2018-02-15T02:22:44.632Z,105.47
2018-02-15T02:25:12.880Z,97.40
2018-02-15T02:27:41.151Z,116.70
2018-02-15T02:30:09.433Z,99.77
2018-02-15T02:32:37.715Z,89.63
2018-02-15T02:35:05.988Z,108.80
2018-02-15T02:37:34.288Z,110.73
2018-02-15T02:40:02.521Z,121.60
2018-02-15T02:42:31.529Z,97.63
2018-02-15T02:44:59.822Z,131.33
2018-02-15T02:47:28.077Z,124.90
2018-02-15T02:49:56.318Z,119.13
2018-02-15T02:52:24.652Z,111.90
2018-02-15T02:54:52.981Z,130.40
2018-02-15T02:57:21.998Z,118.07
2018-02-15T02:59:50.300Z,126.97
2018-02-15T03:02:18.548Z,128.53
2018-02-15T03:04:46.794Z,126.97
2018-02-15T03:07:15.081Z,126.20
2018-02-15T03:09:44.112Z,118.90
2018-02-15T03:12:12.385Z,124.97
2018-02-15T03:14:40.724Z,119.80
2018-02-15T03:17:09.758Z,134.90
2018-02-15T03:19:38.008Z,118.73
2018-02-15T03:22:06.340Z,129.23
2018-02-15T03:24:34.651Z,127.67
2018-02-15T03:27:03.664Z,103.73
2018-02-15T03:29:31.952Z,122.67
2018-02-15T03:32:00.297Z,111.87
2018-02-15T03:34:29.340Z,126.77
2018-02-15T03:36:57.629Z,128.90
2018-02-15T03:39:25.901Z,135.63
2018-02-15T03:41:54.144Z,112.07
2018-02-15T03:44:22.426Z,119.00
2018-02-15T03:46:50.671Z,124.57
2018-02-15T03:49:18.978Z,118.63
2018-02-15T03:51:47.261Z,124.53
2018-02-15T03:54:15.489Z,105.33
2018-02-15T03:56:43.726Z,123.73
2018-02-15T03:59:12.025Z,107.43
2018-02-15T04:01:40.292Z,125.90
2018-02-15T04:04:08.542Z,118.83
2018-02-15T04:06:36.834Z,129.80
2018-02-15T04:09:05.134Z,112.07
2018-02-15T04:11:33.426Z,122.20
2018-02-15T04:14:02.512Z,105.43
2018-02-15T04:16:30.729Z,89.03
2018-02-15T04:18:59.014Z,116.43
2018-02-15T04:21:27.356Z,111.73
2018-02-15T04:23:56.405Z,110.70
2018-02-15T04:26:24.656Z,109.83
2018-02-15T04:28:52.951Z,109.23
2018-02-15T04:31:21.221Z,118.60
2018-02-15T04:33:49.469Z,115.33
2018-02-15T04:36:17.751Z,121.17
2018-02-15T04:38:46.006Z,104.53
2018-02-15T04:41:14.262Z,100.67
2018-02-15T04:43:42.611Z,106.13
2018-02-15T04:46:10.857Z,116.30
2018-02-15T04:48:39.106Z,115.97
2018-02-15T04:51:07.418Z,110.20
2018-02-15T04:53:35.721Z,111.97
2018-02-15T04:56:04.023Z,364.23
2018-02-15T04:58:33.215Z,426.07
2018-02-15T05:01:01.469Z,129.07
2018-02-15T05:03:29.788Z,109.40
2018-02-15T05:05:58.863Z,108.90
2018-02-15T05:08:27.169Z,102.10
2018-02-15T05:10:55.452Z,102.27
2018-02-15T05:13:23.732Z,105.97
2018-02-15T05:15:51.984Z,105.50
2018-02-15T05:18:20.239Z,101.47
2018-02-15T05:20:48.575Z,89.17
2018-02-15T05:23:16.855Z,102.93
2018-02-15T05:25:45.093Z,96.43
2018-02-15T05:28:13.447Z,94.60
2018-02-15T05:30:41.702Z,97.43
2018-02-15T05:33:09.941Z,122.90
2018-02-15T05:35:38.243Z,103.13
2018-02-15T05:38:06.474Z,102.03
2018-02-15T05:40:34.713Z,79.97
2018-02-15T05:43:03.006Z,97.50
2018-02-15T05:45:32.053Z,91.13
2018-02-15T05:48:00.291Z,98.67
2018-02-15T05:50:28.607Z,106.63
2018-02-15T05:52:56.853Z,88.27
2018-02-15T05:55:25.183Z,79.40
2018-02-15T05:57:53.579Z,96.87
2018-02-15T06:00:22.697Z,98.50
2018-02-15T06:02:50.940Z,96.97
2018-02-15T06:05:19.296Z,88.87
2018-02-15T06:07:47.610Z,102.00
2018-02-15T06:10:16.624Z,100.10
2018-02-15T06:12:44.953Z,103.27
2018-02-15T06:15:13.257Z,97.83
2018-02-15T06:17:42.297Z,111.17
2018-02-15T06:20:10.571Z,96.50
2018-02-15T06:22:38.810Z,109.43
2018-02-15T06:25:07.108Z,88.00
2018-02-15T06:27:35.514Z,95.93
2018-02-15T06:30:03.842Z,86.77
2018-02-15T06:32:32.122Z,58.40
2018-02-15T06:35:00.430Z,51.13
2018-02-15T06:37:29.421Z,52.57
2018-02-15T06:39:57.687Z,56.03
2018-02-15T06:42:26.005Z,45.97
2018-02-15T06:44:54.268Z,49.10
2018-02-15T06:47:22.561Z,45.03
2018-02-15T06:49:51.633Z,45.70
2018-02-15T06:52:19.962Z,51.10
2018-02-15T06:54:48.244Z,50.90
2018-02-15T06:57:16.646Z,41.90
2018-02-15T06:59:44.945Z,45.90
2018-02-15T07:02:13.202Z,52.17
2018-02-15T07:04:41.512Z,56.87
2018-02-15T07:07:09.783Z,46.50
2018-02-15T07:09:38.126Z,45.67
2018-02-15T07:12:06.454Z,57.60
2018-02-15T07:14:34.733Z,78.83
2018-02-15T07:17:03.774Z,63.63
2018-02-15T07:19:32.100Z,61.17
2018-02-15T07:22:00.369Z,82.47
2018-02-15T07:24:28.645Z,54.23
2018-02-15T07:26:57.007Z,74.90
2018-02-15T07:29:25.284Z,60.97
2018-02-15T07:31:53.579Z,66.30
2018-02-15T07:34:22.658Z,58.03
2018-02-15T07:36:50.944Z,97.97
2018-02-15T07:39:19.246Z,70.33
2018-02-15T07:41:48.281Z,54.77
2018-02-15T07:44:16.604Z,80.80
2018-02-15T07:46:44.923Z,66.80
2018-02-15T07:49:13.242Z,51.77
2018-02-15T07:51:41.534Z,67.97
2018-02-15T07:54:09.886Z,94.87
2018-02-15T07:56:38.210Z,61.43
2018-02-15T07:59:07.207Z,73.73
2018-02-15T08:01:35.498Z,62.83
2018-02-15T08:04:03.864Z,65.73
2018-02-15T08:06:32.140Z,74.67
2018-02-15T08:09:00.428Z,58.30
2018-02-15T08:11:28.734Z,62.47
2018-02-15T08:13:57.005Z,84.13
2018-02-15T08:16:25.245Z,93.87
2018-02-15T08:18:53.518Z,68.20
2018-02-15T08:21:21.818Z,59.40
2018-02-15T08:23:50.074Z,103.77
2018-02-15T08:26:18.332Z,78.60
2018-02-15T08:28:47.335Z,56.73
2018-02-15T08:31:15.594Z,63.10
2018-02-15T08:33:44.621Z,63.33
2018-02-15T08:36:12.894Z,67.03
2018-02-15T08:38:41.172Z,63.43
2018-02-15T08:41:09.475Z,79.87
2018-02-15T08:43:37.740Z,93.43
2018-02-15T08:46:06.095Z,71.63
2018-02-15T08:48:34.401Z,87.10
2018-02-15T08:51:02.686Z,66.23
2018-02-15T08:53:30.935Z,92.80
2018-02-15T08:55:59.230Z,64.73
2018-02-15T08:58:27.468Z,54.83
2018-02-15T09:00:55.763Z,90.03
2018-02-15T09:03:24.073Z,88.93
2018-02-15T09:05:52.344Z,71.57
2018-02-15T09:08:20.585Z,78.10
2018-02-15T09:10:48.937Z,78.60
2018-02-15T09:13:18.028Z,72.13
2018-02-15T09:15:47.044Z,59.63
2018-02-15T09:18:15.359Z,69.33
2018-02-15T09:20:43.607Z,74.47
2018-02-15T09:23:11.879Z,91.90
2018-02-15T09:25:40.178Z,58.93
2018-02-15T09:28:08.435Z,64.80
2018-02-15T09:30:36.689Z,90.47
2018-02-15T09:33:04.976Z,66.37
2018-02-15T09:35:33.239Z,95.63
2018-02-15T09:38:01.517Z,70.87
2018-02-15T09:40:29.826Z,66.77
2018-02-15T09:42:58.068Z,71.00
2018-02-15T09:45:26.334Z,56.83
2018-02-15T09:47:55.392Z,97.43
2018-02-15T09:50:23.723Z,74.43
2018-02-15T09:52:51.999Z,81.77
2018-02-15T09:55:20.359Z,70.60
2018-02-15T09:57:49.378Z,67.63
2018-02-15T10:00:17.629Z,99.17
2018-02-15T10:02:45.936Z,71.20
2018-02-15T10:05:14.205Z,75.27
2018-02-15T10:07:42.455Z,115.23
2018-02-15T10:10:10.727Z,72.67
2018-02-15T10:12:38.981Z,88.97
2018-02-15T10:15:07.246Z,71.50
2018-02-15T10:17:35.560Z,95.10
2018-02-15T10:20:04.648Z,87.33
2018-02-15T10:22:32.907Z,71.83
2018-02-15T10:25:01.195Z,63.73
2018-02-15T10:27:30.195Z,62.17
2018-02-15T10:29:58.469Z,62.93
2018-02-15T10:32:27.529Z,57.63
2018-02-15T10:34:55.771Z,95.40
2018-02-15T10:37:24.022Z,74.90
2018-02-15T10:39:52.347Z,87.77
2018-02-15T10:42:20.655Z,69.93
2018-02-15T10:44:48.917Z,76.37
2018-02-15T10:47:17.222Z,84.23
2018-02-15T10:49:46.241Z,68.30
2018-02-15T10:52:14.517Z,72.80
2018-02-15T10:54:42.791Z,67.53
2018-02-15T10:57:11.072Z,73.07
2018-02-15T10:59:39.326Z,76.70
2018-02-15T11:02:13.377Z,85.10
2018-02-15T11:04:47.216Z,65.33
2018-02-15T11:07:15.491Z,68.67
2018-02-15T11:09:44.516Z,70.20
2018-02-15T11:12:12.813Z,58.37
2018-02-15T11:14:41.208Z,69.57
2018-02-15T11:17:09.446Z,63.23
2018-02-15T11:19:37.954Z,60.37
2018-02-15T11:22:06.235Z,67.47
2018-02-15T11:24:34.482Z,74.33
2018-02-15T11:27:02.733Z,59.40
2018-02-15T11:29:31.776Z,75.33
2018-02-15T11:32:00.051Z,67.23
2018-02-15T11:34:28.300Z,74.23
2018-02-15T11:36:56.605Z,71.43
2018-02-15T11:39:24.850Z,75.93
2018-02-15T11:41:53.090Z,63.17
2018-02-15T11:44:21.391Z,65.07
2018-02-15T11:46:49.625Z,59.70
2018-02-15T11:49:17.864Z,62.77
2018-02-15T11:51:46.148Z,70.10
2018-02-15T11:54:14.387Z,59.77
2018-02-15T11:56:43.414Z,68.13
2018-02-15T11:59:12.016Z,66.60
2018-02-15T12:01:40.264Z,59.27
2018-02-15T12:04:08.498Z,64.67
2018-02-15T12:06:36.787Z,75.97
2018-02-15T12:09:05.810Z,67.70
2018-02-15T12:11:34.044Z,66.53
2018-02-15T12:14:02.328Z,59.20
2018-02-15T12:16:31.342Z,64.93
2018-02-15T12:18:59.619Z,56.43
2018-02-15T12:21:27.956Z,49.40
2018-02-15T12:23:56.204Z,60.80
2018-02-15T12:26:24.421Z,54.03
2018-02-15T12:28:52.725Z,51.93
2018-02-15T12:31:20.989Z,36.13
2018-02-15T12:33:50.025Z,51.10
2018-02-15T12:36:18.324Z,48.37
2018-02-15T12:38:46.609Z,59.63
2018-02-15T12:41:14.852Z,51.53
2018-02-15T12:43:43.997Z,55.50
2018-02-15T12:46:13.012Z,45.30
2018-02-15T12:48:41.334Z,52.63
2018-02-15T12:51:09.622Z,50.17
2018-02-15T12:53:37.886Z,50.63
2018-02-15T12:56:09.735Z,50.10
2018-02-15T12:58:38.013Z,46.50
2018-02-15T13:01:06.262Z,55.30
2018-02-15T13:03:34.589Z,48.80
2018-02-15T13:06:02.827Z,39.47
2018-02-15T13:08:31.079Z,46.27
2018-02-15T13:10:59.365Z,41.83
2018-02-15T13:13:30.520Z,49.60
2018-02-15T13:16:16.683Z,45.30
2018-02-15T13:18:44.965Z,56.80
2018-02-15T13:21:13.225Z,50.00
2018-02-15T13:23:42.419Z,46.57
2018-02-15T13:26:11.425Z,41.67
2018-02-15T13:28:39.704Z,46.73
2018-02-15T13:31:08.005Z,37.93
2018-02-15T13:33:36.240Z,46.63
2018-02-15T13:36:05.262Z,45.03
2018-02-15T13:38:33.546Z,39.50
2018-02-15T13:41:01.802Z,38.33
2018-02-15T13:43:30.040Z,43.10
2018-02-15T13:45:58.331Z,38.97
2018-02-15T13:48:26.614Z,40.73
2018-02-15T13:50:55.669Z,43.03
2018-02-15T13:53:23.975Z,50.87
2018-02-15T13:55:53.007Z,50.63
2018-02-15T13:58:21.296Z,43.50
2018-02-15T14:00:49.621Z,43.17
2018-02-15T14:03:18.648Z,38.70
2018-02-15T14:05:46.999Z,42.93
2018-02-15T14:08:16.066Z,46.03
2018-02-15T14:10:44.289Z,37.43
2018-02-15T14:13:12.606Z,39.13
2018-02-15T14:15:40.883Z,37.57
2018-02-15T14:18:09.121Z,39.30
2018-02-15T14:20:37.347Z,44.20
2018-02-15T14:23:05.620Z,49.93
2018-02-15T14:25:33.900Z,32.57
2018-02-15T14:28:02.133Z,37.77
2018-02-15T14:30:30.522Z,39.03
2018-02-15T14:32:59.565Z,32.13
2018-02-15T14:35:28.583Z,38.40
2018-02-15T14:37:56.866Z,37.80
2018-02-15T14:40:25.342Z,35.70
2018-02-15T14:42:53.563Z,38.10
2018-02-15T14:45:21.847Z,36.87
2018-02-15T14:47:50.099Z,35.17
2018-02-15T14:50:18.371Z,37.57
2018-02-15T14:52:46.657Z,41.10
2018-02-15T14:55:15.021Z,34.03
2018-02-15T14:57:43.329Z,35.50
2018-02-15T15:00:11.624Z,38.10
2018-02-15T15:02:39.931Z,34.93
2018-02-15T15:05:08.184Z,29.37
2018-02-15T15:07:36.455Z,42.47
2018-02-15T15:10:05.541Z,32.43
2018-02-15T15:12:34.692Z,31.40
2018-02-15T15:15:02.974Z,36.00
2018-02-15T15:17:31.231Z,30.17
2018-02-15T15:19:59.492Z,37.43
2018-02-15T15:22:27.803Z,36.07
2018-02-15T15:24:56.052Z,42.80
2018-02-15T15:27:24.392Z,40.47
2018-02-15T15:29:52.648Z,33.40
2018-02-15T15:32:20.914Z,34.23
2018-02-15T15:34:50.014Z,43.20
2018-02-15T15:37:18.320Z,42.20
2018-02-15T15:39:47.349Z,39.73
2018-02-15T15:42:15.596Z,40.33
2018-02-15T15:44:43.901Z,38.30
2018-02-15T15:47:12.195Z,36.60
2018-02-15T15:49:40.433Z,35.00
2018-02-15T15:52:08.774Z,34.80
2018-02-15T15:54:37.038Z,31.87
2018-02-15T15:57:05.308Z,37.93
2018-02-15T15:59:33.585Z,36.10
2018-02-15T16:02:01.829Z,37.97
2018-02-15T16:04:30.085Z,34.60
2018-02-15T16:06:59.180Z,40.13
2018-02-15T16:09:27.449Z,27.77
2018-02-15T16:11:55.719Z,34.67
2018-02-15T16:14:24.793Z,31.87
2018-02-15T16:16:53.094Z,30.80
2018-02-15T16:19:21.345Z,27.60
2018-02-15T16:21:49.625Z,26.20
2018-02-15T16:24:17.911Z,33.90
2018-02-15T16:26:46.965Z,31.70
2018-02-15T16:29:15.576Z,31.33
2018-02-15T16:31:43.835Z,29.93
2018-02-15T16:34:12.094Z,28.80
2018-02-15T16:36:40.378Z,26.67
2018-02-15T16:39:08.662Z,29.77
2018-02-15T16:41:36.927Z,31.00
2018-02-15T16:44:05.256Z,29.07
2018-02-15T16:46:33.542Z,24.90
2018-02-15T16:49:01.832Z,30.73
2018-02-15T16:51:30.680Z,31.33
2018-02-15T16:53:59.784Z,37.03
2018-02-15T16:56:28.843Z,34.90
2018-02-15T16:58:57.198Z,34.80
2018-02-15T17:01:25.500Z,30.93
2018-02-15T17:03:53.755Z,31.10
2018-02-15T17:06:22.070Z,30.57
2018-02-15T17:08:51.179Z,34.10
2018-02-15T17:11:20.237Z,31.27
2018-02-15T17:13:49.227Z,39.80
2018-02-15T17:16:17.698Z,29.40
2018-02-15T17:18:45.949Z,33.20
2018-02-15T17:21:14.225Z,32.83
2018-02-15T17:23:42.480Z,38.90
2018-02-15T17:26:11.559Z,38.23
2018-02-15T17:28:39.871Z,40.70
2018-02-15T17:31:08.229Z,34.33
2018-02-15T17:33:36.508Z,33.70
2018-02-15T17:36:04.847Z,39.93
2018-02-15T17:38:33.110Z,39.30
2018-02-15T17:41:01.436Z,36.73
2018-02-15T17:43:29.732Z,41.37
2018-02-15T17:45:58.115Z,37.70
2018-02-15T17:48:26.489Z,51.33
2018-02-15T17:50:54.781Z,37.93
2018-02-15T17:53:23.826Z,41.90
2018-02-15T17:55:52.848Z,47.73
2018-02-15T17:58:21.129Z,37.60
2018-02-15T18:00:49.471Z,34.57
2018-02-15T18:03:17.886Z,47.80
2018-02-15T18:05:46.267Z,48.20
2018-02-15T18:08:14.540Z,45.47
2018-02-15T18:10:42.827Z,35.77
2018-02-15T18:13:11.140Z,30.30
2018-02-15T18:15:39.378Z,47.10
2018-02-15T18:18:07.622Z,49.23
2018-02-15T18:20:36.688Z,48.33
2018-02-15T18:23:05.053Z,48.13
2018-02-15T18:25:33.316Z,45.37
2018-02-15T18:28:01.738Z,56.70
2018-02-15T18:30:30.746Z,47.00
2018-02-15T18:32:59.199Z,37.90
2018-02-15T18:35:28.301Z,46.37
2018-02-15T18:37:56.561Z,45.00
2018-02-15T18:40:24.860Z,40.97
2018-02-15T18:42:53.931Z,47.63
2018-02-15T18:45:22.186Z,42.57
2018-02-15T18:47:50.438Z,45.90
2018-02-15T18:50:18.772Z,42.53
2018-02-15T18:52:47.123Z,41.77
2018-02-15T18:55:15.546Z,32.50
2018-02-15T18:57:43.979Z,40.43
2018-02-15T19:00:12.287Z,51.67
2018-02-15T19:02:40.792Z,49.60
2018-02-15T19:05:09.101Z,52.90
2018-02-15T19:07:37.421Z,43.60
2018-02-15T19:10:06.443Z,44.30
2018-02-15T19:12:34.795Z,46.47
2018-02-15T19:15:03.040Z,51.80
2018-02-15T19:17:31.296Z,45.17
2018-02-15T19:19:59.610Z,36.03
2018-02-15T19:22:27.855Z,37.33
2018-02-15T19:24:56.143Z,39.57
2018-02-15T19:27:24.461Z,45.33
2018-02-15T19:29:56.109Z,47.90
2018-02-15T19:32:26.241Z,41.27
2018-02-15T19:34:54.595Z,46.20
2018-02-15T19:37:23.115Z,38.27
2018-02-15T19:39:51.458Z,50.37
2018-02-15T19:42:21.050Z,54.80
2018-02-15T19:44:51.804Z,42.63
2018-02-15T19:47:20.930Z,39.17
2018-02-15T19:49:49.541Z,34.00
2018-02-15T19:52:17.883Z,40.60
2018-02-15T19:54:46.575Z,54.10
2018-02-15T19:57:14.944Z,42.83
2018-02-15T19:59:43.951Z,46.03
2018-02-15T20:02:13.589Z,35.13
2018-02-15T20:04:42.055Z,37.13
2018-02-15T20:07:11.191Z,38.57
2018-02-15T20:09:41.012Z,35.37
2018-02-15T20:12:09.585Z,42.57
2018-02-15T20:14:39.348Z,39.40
2018-02-15T20:17:07.592Z,34.97
2018-02-15T20:19:35.970Z,38.60
2018-02-15T20:22:05.188Z,36.10
2018-02-15T20:24:33.565Z,42.80
2018-02-15T20:27:07.680Z,43.37
2018-02-15T20:29:36.784Z,44.10
2018-02-15T20:32:05.066Z,41.10
2018-02-15T20:34:33.399Z,44.27
2018-02-15T20:37:01.692Z,36.00
2018-02-15T20:39:36.501Z,40.97
2018-02-15T20:42:05.597Z,47.53
2018-02-15T20:44:33.866Z,42.20
2018-02-15T20:47:02.941Z,40.90
2018-02-15T20:49:36.805Z,47.63
2018-02-15T20:52:10.494Z,39.83
2018-02-15T20:54:44.460Z,51.10
2018-02-15T20:57:12.707Z,37.33
2018-02-15T20:59:40.981Z,44.10
2018-02-15T21:02:09.360Z,40.30
2018-02-15T21:04:37.675Z,39.83
2018-02-15T21:07:05.922Z,46.57
2018-02-15T21:09:34.269Z,45.13
2018-02-15T21:12:02.516Z,48.43
2018-02-15T21:14:31.578Z,39.60
2018-02-15T21:16:59.946Z,42.00
2018-02-15T21:19:28.265Z,41.57
2018-02-15T21:21:56.560Z,54.40
2018-02-15T21:24:24.896Z,43.67
2018-02-15T21:26:53.146Z,36.80
2018-02-15T21:29:21.401Z,37.50
2018-02-15T21:31:49.710Z,46.53
2018-02-15T21:34:17.965Z,41.23
2018-02-15T21:36:46.260Z,45.30
2018-02-15T21:39:14.500Z,44.27
2018-02-15T21:41:42.828Z,48.20
2018-02-15T21:44:11.126Z,49.10
2018-02-15T21:46:39.405Z,44.60
2018-02-15T21:49:08.452Z,58.43
2018-02-15T21:51:36.741Z,57.60
2018-02-15T21:54:05.020Z,52.47
2018-02-15T21:56:33.272Z,36.07
2018-02-15T21:59:01.521Z,47.27
2018-02-15T22:01:29.899Z,41.73
2018-02-15T22:03:58.181Z,43.23
2018-02-15T22:06:26.478Z,46.90
2018-02-15T22:08:54.880Z,37.53
2018-02-15T22:11:23.174Z,40.23
2018-02-15T22:13:52.207Z,43.93
2018-02-15T22:16:20.552Z,54.37
2018-02-15T22:18:48.885Z,38.60
2018-02-15T22:21:17.147Z,44.60
2018-02-15T22:23:45.490Z,41.60
2018-02-15T22:26:14.497Z,46.40
2018-02-15T22:28:42.785Z,50.73
2018-02-15T22:31:11.150Z,34.93
2018-02-15T22:33:39.527Z,41.70
2018-02-15T22:36:07.826Z,55.37
2018-02-15T22:38:36.136Z,39.47
2018-02-15T22:41:04.387Z,46.03
2018-02-15T22:43:32.700Z,42.10
2018-02-15T22:46:01.000Z,37.87
2018-02-15T22:48:29.239Z,61.97
2018-02-15T22:50:57.535Z,46.73
2018-02-15T22:53:26.546Z,39.47
2018-02-15T22:55:54.897Z,37.90
2018-02-15T22:58:23.944Z,53.33
2018-02-15T23:00:52.214Z,39.60
2018-02-15T23:03:20.483Z,43.40
2018-02-15T23:05:48.727Z,46.20
2018-02-15T23:08:18.642Z,40.50
2018-02-15T23:10:46.912Z,43.33
2018-02-15T23:13:15.943Z,45.30
2018-02-15T23:15:44.301Z,42.77
2018-02-15T23:18:13.310Z,39.07
2018-02-15T23:20:41.597Z,39.60
2018-02-15T23:23:09.888Z,46.37
2018-02-15T23:25:38.136Z,43.20
2018-02-15T23:28:06.368Z,55.93
2018-02-15T23:30:34.660Z,48.20
2018-02-15T23:33:03.667Z,37.27
2018-02-15T23:35:32.716Z,34.73
2018-02-15T23:38:01.044Z,46.37
2018-02-15T23:40:29.282Z,46.23
2018-02-15T23:42:58.356Z,33.80
2018-02-15T23:45:26.694Z,48.80
2018-02-15T23:47:54.992Z,41.60
2018-02-15T23:50:24.082Z,44.23
2018-02-15T23:52:52.387Z,44.57
2018-02-15T23:55:20.646Z,39.87
2018-02-15T23:57:48.943Z,41.10
